sensor_id;sensor_type;location;lat;lon;timestamp;temperature;humidity
37204;DHT22;23098;48.054;10.636;2023-01-28T00:00:50;-1.50;99.90
37204;DHT22;23098;48.054;10.636;2023-01-28T00:03:15;-1.50;99.90
37204;DHT22;23098;48.054;10.636;2023-01-28T00:05:41;-1.50;99.90
37204;DHT22;23098;48.054;10.636;2023-01-28T00:08:07;-1.50;99.90
37204;DHT22;23098;48.054;10.636;2023-01-28T00:10:32;-1.50;99.90
37204;DHT22;23098;48.054;10.636;2023-01-28T00:12:58;-1.50;99.90
37204;DHT22;23098;48.054;10.636;2023-01-28T00:15:23;-1.50;99.90
37204;DHT22;23098;48.054;10.636;2023-01-28T00:17:50;-1.60;99.90
37204;DHT22;23098;48.054;10.636;2023-01-28T00:20:15;-1.60;99.90
37204;DHT22;23098;48.054;10.636;2023-01-28T00:22:48;-1.60;99.90
37204;DHT22;23098;48.054;10.636;2023-01-28T00:25:15;-1.70;99.90
37204;DHT22;23098;48.054;10.636;2023-01-28T00:27:41;-1.70;99.90
37204;DHT22;23098;48.054;10.636;2023-01-28T00:30:07;-1.70;99.90
37204;DHT22;23098;48.054;10.636;2023-01-28T00:32:33;-1.70;99.90
37204;DHT22;23098;48.054;10.636;2023-01-28T00:34:58;-1.60;99.90
37204;DHT22;23098;48.054;10.636;2023-01-28T00:37:24;-1.60;99.90
37204;DHT22;23098;48.054;10.636;2023-01-28T00:39:49;-1.60;99.90
37204;DHT22;23098;48.054;10.636;2023-01-28T00:42:15;-1.70;99.90
37204;DHT22;23098;48.054;10.636;2023-01-28T00:44:41;-1.70;99.90
37204;DHT22;23098;48.054;10.636;2023-01-28T00:47:06;-1.60;99.90
37204;DHT22;23098;48.054;10.636;2023-01-28T00:49:32;-1.70;99.90
37204;DHT22;23098;48.054;10.636;2023-01-28T00:51:58;-1.70;99.90
37204;DHT22;23098;48.054;10.636;2023-01-28T00:54:23;-1.60;99.90
37204;DHT22;23098;48.054;10.636;2023-01-28T00:56:49;-1.60;99.90
37204;DHT22;23098;48.054;10.636;2023-01-28T00:59:14;-1.70;99.90
37204;DHT22;23098;48.054;10.636;2023-01-28T01:01:40;-1.60;99.90
37204;DHT22;23098;48.054;10.636;2023-01-28T01:04:06;-1.60;99.90
37204;DHT22;23098;48.054;10.636;2023-01-28T01:06:37;-1.60;99.90
37204;DHT22;23098;48.054;10.636;2023-01-28T01:09:05;-1.60;99.90
37204;DHT22;23098;48.054;10.636;2023-01-28T01:11:31;-1.60;99.90
37204;DHT22;23098;48.054;10.636;2023-01-28T01:13:58;-1.70;99.90
37204;DHT22;23098;48.054;10.636;2023-01-28T01:16:27;-1.60;99.90
37204;DHT22;23098;48.054;10.636;2023-01-28T01:18:54;-1.70;99.90
37204;DHT22;23098;48.054;10.636;2023-01-28T01:21:23;-1.60;99.90
37204;DHT22;23098;48.054;10.636;2023-01-28T01:23:48;-1.60;99.90
37204;DHT22;23098;48.054;10.636;2023-01-28T01:26:14;-1.60;99.90
37204;DHT22;23098;48.054;10.636;2023-01-28T01:28:40;-1.70;99.90
37204;DHT22;23098;48.054;10.636;2023-01-28T01:31:12;-1.70;99.90
37204;DHT22;23098;48.054;10.636;2023-01-28T01:33:39;-1.70;99.90
37204;DHT22;23098;48.054;10.636;2023-01-28T01:36:05;-1.60;99.90
37204;DHT22;23098;48.054;10.636;2023-01-28T01:38:31;-1.70;99.90
37204;DHT22;23098;48.054;10.636;2023-01-28T01:40:57;-1.70;99.90
37204;DHT22;23098;48.054;10.636;2023-01-28T01:43:24;-1.70;99.90
37204;DHT22;23098;48.054;10.636;2023-01-28T01:45:54;-1.70;99.90
37204;DHT22;23098;48.054;10.636;2023-01-28T01:48:33;-1.70;99.90
37204;DHT22;23098;48.054;10.636;2023-01-28T01:51:11;-1.70;99.90
37204;DHT22;23098;48.054;10.636;2023-01-28T01:53:42;-1.70;99.90
37204;DHT22;23098;48.054;10.636;2023-01-28T01:56:10;-1.70;99.90
37204;DHT22;23098;48.054;10.636;2023-01-28T01:58:39;-1.70;99.90
37204;DHT22;23098;48.054;10.636;2023-01-28T02:01:06;-1.70;99.90
37204;DHT22;23098;48.054;10.636;2023-01-28T02:04:05;-1.70;99.90
37204;DHT22;23098;48.054;10.636;2023-01-28T02:06:33;-1.60;99.90
37204;DHT22;23098;48.054;10.636;2023-01-28T02:08:59;-1.60;99.90
37204;DHT22;23098;48.054;10.636;2023-01-28T02:11:29;-1.60;99.90
37204;DHT22;23098;48.054;10.636;2023-01-28T02:13:59;-1.70;99.90
37204;DHT22;23098;48.054;10.636;2023-01-28T02:16:27;-1.60;99.90
37204;DHT22;23098;48.054;10.636;2023-01-28T02:18:53;-1.70;99.90
37204;DHT22;23098;48.054;10.636;2023-01-28T02:24:09;-1.60;99.90
37204;DHT22;23098;48.054;10.636;2023-01-28T02:29:24;-1.70;99.90
37204;DHT22;23098;48.054;10.636;2023-01-28T02:31:53;-1.70;99.90
37204;DHT22;23098;48.054;10.636;2023-01-28T02:34:45;-1.70;99.90
37204;DHT22;23098;48.054;10.636;2023-01-28T02:37:25;-1.70;99.90
37204;DHT22;23098;48.054;10.636;2023-01-28T02:39:54;-1.70;99.90
37204;DHT22;23098;48.054;10.636;2023-01-28T02:42:31;-1.70;99.90
37204;DHT22;23098;48.054;10.636;2023-01-28T02:44:56;-1.70;99.90
37204;DHT22;23098;48.054;10.636;2023-01-28T02:47:22;-1.70;99.90
37204;DHT22;23098;48.054;10.636;2023-01-28T02:50:13;-1.70;99.90
37204;DHT22;23098;48.054;10.636;2023-01-28T02:56:06;-1.70;99.90
37204;DHT22;23098;48.054;10.636;2023-01-28T02:59:03;-1.70;99.90
37204;DHT22;23098;48.054;10.636;2023-01-28T03:04:35;-1.70;99.90
37204;DHT22;23098;48.054;10.636;2023-01-28T03:07:04;-1.70;99.90
37204;DHT22;23098;48.054;10.636;2023-01-28T03:09:31;-1.70;99.90
37204;DHT22;23098;48.054;10.636;2023-01-28T03:12:08;-1.70;99.90
37204;DHT22;23098;48.054;10.636;2023-01-28T03:17:52;-1.70;99.90
37204;DHT22;23098;48.054;10.636;2023-01-28T03:20:53;-1.70;99.90
37204;DHT22;23098;48.054;10.636;2023-01-28T03:23:47;-1.70;99.90
37204;DHT22;23098;48.054;10.636;2023-01-28T03:26:41;-1.70;99.90
37204;DHT22;23098;48.054;10.636;2023-01-28T03:29:28;-1.70;99.90
37204;DHT22;23098;48.054;10.636;2023-01-28T03:32:14;-1.70;99.90
37204;DHT22;23098;48.054;10.636;2023-01-28T03:34:58;-1.70;99.90
37204;DHT22;23098;48.054;10.636;2023-01-28T03:37:42;-1.70;99.90
37204;DHT22;23098;48.054;10.636;2023-01-28T03:40:09;-1.70;99.90
37204;DHT22;23098;48.054;10.636;2023-01-28T03:42:35;-1.70;99.90
37204;DHT22;23098;48.054;10.636;2023-01-28T03:45:01;-1.70;99.90
37204;DHT22;23098;48.054;10.636;2023-01-28T03:47:30;-1.70;99.90
37204;DHT22;23098;48.054;10.636;2023-01-28T03:49:57;-1.70;99.90
37204;DHT22;23098;48.054;10.636;2023-01-28T03:52:29;-1.70;99.90
37204;DHT22;23098;48.054;10.636;2023-01-28T03:54:55;-1.70;99.90
37204;DHT22;23098;48.054;10.636;2023-01-28T03:57:23;-1.70;99.90
37204;DHT22;23098;48.054;10.636;2023-01-28T03:59:49;-1.70;99.90
37204;DHT22;23098;48.054;10.636;2023-01-28T04:02:15;-1.70;99.90
37204;DHT22;23098;48.054;10.636;2023-01-28T04:04:41;-1.70;99.90
37204;DHT22;23098;48.054;10.636;2023-01-28T04:07:09;-1.70;99.90
37204;DHT22;23098;48.054;10.636;2023-01-28T04:09:38;-1.70;99.90
37204;DHT22;23098;48.054;10.636;2023-01-28T04:12:04;-1.70;99.90
37204;DHT22;23098;48.054;10.636;2023-01-28T04:14:30;-1.80;99.90
37204;DHT22;23098;48.054;10.636;2023-01-28T04:16:56;-1.80;99.90
37204;DHT22;23098;48.054;10.636;2023-01-28T04:19:22;-1.70;99.90
37204;DHT22;23098;48.054;10.636;2023-01-28T04:21:48;-1.70;99.90
37204;DHT22;23098;48.054;10.636;2023-01-28T04:24:14;-1.70;99.90
37204;DHT22;23098;48.054;10.636;2023-01-28T04:26:40;-1.80;99.90
37204;DHT22;23098;48.054;10.636;2023-01-28T04:29:05;-1.80;99.90
37204;DHT22;23098;48.054;10.636;2023-01-28T04:31:31;-1.80;99.90
37204;DHT22;23098;48.054;10.636;2023-01-28T04:33:57;-1.80;99.90
37204;DHT22;23098;48.054;10.636;2023-01-28T04:36:23;-1.80;99.90
37204;DHT22;23098;48.054;10.636;2023-01-28T04:38:49;-1.80;99.90
37204;DHT22;23098;48.054;10.636;2023-01-28T04:41:14;-1.80;99.90
37204;DHT22;23098;48.054;10.636;2023-01-28T04:43:40;-1.80;99.90
37204;DHT22;23098;48.054;10.636;2023-01-28T04:46:05;-1.80;99.90
37204;DHT22;23098;48.054;10.636;2023-01-28T04:48:31;-1.80;99.90
37204;DHT22;23098;48.054;10.636;2023-01-28T04:50:57;-1.80;99.90
37204;DHT22;23098;48.054;10.636;2023-01-28T04:53:22;-1.80;99.90
37204;DHT22;23098;48.054;10.636;2023-01-28T04:55:48;-1.80;99.90
37204;DHT22;23098;48.054;10.636;2023-01-28T04:58:14;-1.80;99.90
37204;DHT22;23098;48.054;10.636;2023-01-28T05:00:39;-1.80;99.90
37204;DHT22;23098;48.054;10.636;2023-01-28T05:03:05;-1.80;99.90
37204;DHT22;23098;48.054;10.636;2023-01-28T05:05:30;-1.80;99.90
37204;DHT22;23098;48.054;10.636;2023-01-28T05:07:57;-1.80;99.90
37204;DHT22;23098;48.054;10.636;2023-01-28T05:10:24;-1.70;99.90
37204;DHT22;23098;48.054;10.636;2023-01-28T05:12:50;-1.80;99.90
37204;DHT22;23098;48.054;10.636;2023-01-28T05:15:16;-1.80;99.90
37204;DHT22;23098;48.054;10.636;2023-01-28T05:17:42;-1.80;99.90
37204;DHT22;23098;48.054;10.636;2023-01-28T05:20:09;-1.80;99.90
37204;DHT22;23098;48.054;10.636;2023-01-28T05:22:35;-1.80;99.90
37204;DHT22;23098;48.054;10.636;2023-01-28T05:25:01;-1.80;99.90
37204;DHT22;23098;48.054;10.636;2023-01-28T05:27:28;-1.80;99.90
37204;DHT22;23098;48.054;10.636;2023-01-28T05:29:53;-1.80;99.90
37204;DHT22;23098;48.054;10.636;2023-01-28T05:32:19;-1.80;99.90
37204;DHT22;23098;48.054;10.636;2023-01-28T05:34:44;-1.80;99.90
37204;DHT22;23098;48.054;10.636;2023-01-28T05:37:10;-1.80;99.90
37204;DHT22;23098;48.054;10.636;2023-01-28T05:39:35;-1.80;99.90
37204;DHT22;23098;48.054;10.636;2023-01-28T05:42:01;-1.90;99.90
37204;DHT22;23098;48.054;10.636;2023-01-28T05:44:26;-1.80;99.90
37204;DHT22;23098;48.054;10.636;2023-01-28T05:46:52;-1.80;99.90
37204;DHT22;23098;48.054;10.636;2023-01-28T05:49:17;-1.80;99.90
37204;DHT22;23098;48.054;10.636;2023-01-28T05:51:43;-1.80;99.90
37204;DHT22;23098;48.054;10.636;2023-01-28T05:54:08;-1.80;99.90
37204;DHT22;23098;48.054;10.636;2023-01-28T05:56:34;-1.80;99.90
37204;DHT22;23098;48.054;10.636;2023-01-28T05:59:02;-1.90;99.90
37204;DHT22;23098;48.054;10.636;2023-01-28T06:01:27;-1.90;99.90
37204;DHT22;23098;48.054;10.636;2023-01-28T06:03:53;-1.80;99.90
37204;DHT22;23098;48.054;10.636;2023-01-28T06:06:19;-1.90;99.90
37204;DHT22;23098;48.054;10.636;2023-01-28T06:08:44;-1.90;99.90
37204;DHT22;23098;48.054;10.636;2023-01-28T06:11:10;-1.90;99.90
37204;DHT22;23098;48.054;10.636;2023-01-28T06:13:35;-1.90;99.90
37204;DHT22;23098;48.054;10.636;2023-01-28T06:16:02;-1.90;99.90
37204;DHT22;23098;48.054;10.636;2023-01-28T06:18:28;-1.90;99.90
37204;DHT22;23098;48.054;10.636;2023-01-28T06:20:53;-1.90;99.90
37204;DHT22;23098;48.054;10.636;2023-01-28T06:23:19;-1.90;99.90
37204;DHT22;23098;48.054;10.636;2023-01-28T06:25:44;-1.90;99.90
37204;DHT22;23098;48.054;10.636;2023-01-28T06:28:10;-1.90;99.90
37204;DHT22;23098;48.054;10.636;2023-01-28T06:30:35;-1.90;99.90
37204;DHT22;23098;48.054;10.636;2023-01-28T06:33:01;-1.90;99.90
37204;DHT22;23098;48.054;10.636;2023-01-28T06:35:27;-1.90;99.90
37204;DHT22;23098;48.054;10.636;2023-01-28T06:37:52;-1.90;99.90
37204;DHT22;23098;48.054;10.636;2023-01-28T06:40:19;-1.90;99.90
37204;DHT22;23098;48.054;10.636;2023-01-28T06:42:45;-1.90;99.90
37204;DHT22;23098;48.054;10.636;2023-01-28T06:45:10;-1.90;99.90
37204;DHT22;23098;48.054;10.636;2023-01-28T06:47:38;-2.00;99.90
37204;DHT22;23098;48.054;10.636;2023-01-28T06:50:04;-2.00;99.90
37204;DHT22;23098;48.054;10.636;2023-01-28T06:52:29;-1.90;99.90
37204;DHT22;23098;48.054;10.636;2023-01-28T06:54:55;-1.90;99.90
37204;DHT22;23098;48.054;10.636;2023-01-28T06:57:20;-2.00;99.90
37204;DHT22;23098;48.054;10.636;2023-01-28T06:59:46;-1.90;99.90
37204;DHT22;23098;48.054;10.636;2023-01-28T07:02:11;-2.00;99.90
37204;DHT22;23098;48.054;10.636;2023-01-28T07:04:37;-2.00;99.90
37204;DHT22;23098;48.054;10.636;2023-01-28T07:07:02;-1.90;99.90
37204;DHT22;23098;48.054;10.636;2023-01-28T07:09:28;-2.00;99.90
37204;DHT22;23098;48.054;10.636;2023-01-28T07:11:54;-1.90;99.90
37204;DHT22;23098;48.054;10.636;2023-01-28T07:14:19;-1.80;99.90
37204;DHT22;23098;48.054;10.636;2023-01-28T07:16:44;-1.90;99.90
37204;DHT22;23098;48.054;10.636;2023-01-28T07:19:10;-1.80;99.90
37204;DHT22;23098;48.054;10.636;2023-01-28T07:21:35;-1.90;99.90
37204;DHT22;23098;48.054;10.636;2023-01-28T07:24:01;-1.80;99.90
37204;DHT22;23098;48.054;10.636;2023-01-28T07:26:29;-1.90;99.90
37204;DHT22;23098;48.054;10.636;2023-01-28T07:28:55;-1.90;99.90
37204;DHT22;23098;48.054;10.636;2023-01-28T07:31:20;-1.90;99.90
37204;DHT22;23098;48.054;10.636;2023-01-28T07:33:46;-1.90;99.90
37204;DHT22;23098;48.054;10.636;2023-01-28T07:36:12;-1.90;99.90
37204;DHT22;23098;48.054;10.636;2023-01-28T07:38:37;-1.90;99.90
37204;DHT22;23098;48.054;10.636;2023-01-28T07:41:03;-1.80;99.90
37204;DHT22;23098;48.054;10.636;2023-01-28T07:43:28;-1.90;99.90
37204;DHT22;23098;48.054;10.636;2023-01-28T07:45:54;-1.80;99.90
37204;DHT22;23098;48.054;10.636;2023-01-28T07:48:20;-1.80;99.90
37204;DHT22;23098;48.054;10.636;2023-01-28T07:50:47;-1.80;99.90
37204;DHT22;23098;48.054;10.636;2023-01-28T07:53:14;-1.80;99.90
37204;DHT22;23098;48.054;10.636;2023-01-28T07:55:39;-1.70;99.90
37204;DHT22;23098;48.054;10.636;2023-01-28T07:58:06;-1.70;99.90
37204;DHT22;23098;48.054;10.636;2023-01-28T08:00:34;-1.60;99.90
37204;DHT22;23098;48.054;10.636;2023-01-28T08:03:01;-1.60;99.90
37204;DHT22;23098;48.054;10.636;2023-01-28T08:08:08;-1.80;99.90
37204;DHT22;23098;48.054;10.636;2023-01-28T08:10:34;-1.80;99.90
37204;DHT22;23098;48.054;10.636;2023-01-28T08:13:00;-1.80;99.90
37204;DHT22;23098;48.054;10.636;2023-01-28T08:15:26;-1.80;99.90
37204;DHT22;23098;48.054;10.636;2023-01-28T08:17:56;-1.60;99.90
37204;DHT22;23098;48.054;10.636;2023-01-28T08:20:25;-1.50;99.90
37204;DHT22;23098;48.054;10.636;2023-01-28T08:22:51;-1.50;99.90
37204;DHT22;23098;48.054;10.636;2023-01-28T08:25:17;-1.50;99.90
37204;DHT22;23098;48.054;10.636;2023-01-28T08:27:43;-1.50;99.90
37204;DHT22;23098;48.054;10.636;2023-01-28T08:30:09;-1.60;99.90
37204;DHT22;23098;48.054;10.636;2023-01-28T08:32:35;-1.50;99.90
37204;DHT22;23098;48.054;10.636;2023-01-28T08:35:01;-1.40;99.90
37204;DHT22;23098;48.054;10.636;2023-01-28T08:37:27;-1.40;99.90
37204;DHT22;23098;48.054;10.636;2023-01-28T08:39:53;-1.40;99.90
37204;DHT22;23098;48.054;10.636;2023-01-28T08:42:18;-1.30;99.90
37204;DHT22;23098;48.054;10.636;2023-01-28T08:44:44;-1.40;99.90
37204;DHT22;23098;48.054;10.636;2023-01-28T08:47:10;-1.50;99.90
37204;DHT22;23098;48.054;10.636;2023-01-28T08:49:35;-1.50;99.90
37204;DHT22;23098;48.054;10.636;2023-01-28T08:52:04;-1.40;99.90
37204;DHT22;23098;48.054;10.636;2023-01-28T08:54:29;-1.40;99.90
37204;DHT22;23098;48.054;10.636;2023-01-28T08:56:55;-1.40;99.90
37204;DHT22;23098;48.054;10.636;2023-01-28T08:59:20;-1.40;99.90
37204;DHT22;23098;48.054;10.636;2023-01-28T09:01:46;-1.30;99.90
37204;DHT22;23098;48.054;10.636;2023-01-28T09:04:11;-1.20;99.90
37204;DHT22;23098;48.054;10.636;2023-01-28T09:06:37;-1.20;99.90
37204;DHT22;23098;48.054;10.636;2023-01-28T09:09:02;-1.10;99.90
37204;DHT22;23098;48.054;10.636;2023-01-28T09:11:29;-1.20;99.90
37204;DHT22;23098;48.054;10.636;2023-01-28T09:13:56;-1.10;99.90
37204;DHT22;23098;48.054;10.636;2023-01-28T09:16:22;-1.30;99.90
37204;DHT22;23098;48.054;10.636;2023-01-28T09:18:48;-1.20;99.90
37204;DHT22;23098;48.054;10.636;2023-01-28T09:21:16;-1.20;99.90
37204;DHT22;23098;48.054;10.636;2023-01-28T09:23:50;-1.20;99.90
37204;DHT22;23098;48.054;10.636;2023-01-28T09:26:21;-1.30;99.90
37204;DHT22;23098;48.054;10.636;2023-01-28T09:28:47;-1.40;99.90
37204;DHT22;23098;48.054;10.636;2023-01-28T09:31:12;-1.40;99.90
37204;DHT22;23098;48.054;10.636;2023-01-28T09:33:39;-1.40;99.90
37204;DHT22;23098;48.054;10.636;2023-01-28T09:36:07;-1.40;99.90
37204;DHT22;23098;48.054;10.636;2023-01-28T09:38:36;-1.40;99.90
37204;DHT22;23098;48.054;10.636;2023-01-28T09:41:26;-1.30;99.90
37204;DHT22;23098;48.054;10.636;2023-01-28T09:46:31;-1.00;99.90
37204;DHT22;23098;48.054;10.636;2023-01-28T09:48:59;-1.00;99.90
37204;DHT22;23098;48.054;10.636;2023-01-28T09:51:33;-1.20;99.90
37204;DHT22;23098;48.054;10.636;2023-01-28T09:54:51;-1.00;99.90
37204;DHT22;23098;48.054;10.636;2023-01-28T09:57:25;-1.10;99.90
37204;DHT22;23098;48.054;10.636;2023-01-28T09:59:52;-1.00;99.90
37204;DHT22;23098;48.054;10.636;2023-01-28T10:05:18;-1.00;99.90
37204;DHT22;23098;48.054;10.636;2023-01-28T10:15:46;-0.40;99.90
37204;DHT22;23098;48.054;10.636;2023-01-28T10:18:14;-0.50;99.90
37204;DHT22;23098;48.054;10.636;2023-01-28T10:20:54;-0.60;99.90
37204;DHT22;23098;48.054;10.636;2023-01-28T10:23:33;-0.70;99.90
37204;DHT22;23098;48.054;10.636;2023-01-28T10:26:04;-0.50;99.90
37204;DHT22;23098;48.054;10.636;2023-01-28T10:28:35;-0.60;99.90
37204;DHT22;23098;48.054;10.636;2023-01-28T10:31:01;-0.70;99.90
37204;DHT22;23098;48.054;10.636;2023-01-28T10:35:54;-0.70;99.90
37204;DHT22;23098;48.054;10.636;2023-01-28T10:38:22;-0.80;99.90
37204;DHT22;23098;48.054;10.636;2023-01-28T10:40:49;-0.80;99.90
37204;DHT22;23098;48.054;10.636;2023-01-28T10:43:28;-0.80;99.90
37204;DHT22;23098;48.054;10.636;2023-01-28T10:46:00;-0.60;99.90
37204;DHT22;23098;48.054;10.636;2023-01-28T10:48:36;-0.50;99.90
37204;DHT22;23098;48.054;10.636;2023-01-28T10:51:04;-0.60;99.90
37204;DHT22;23098;48.054;10.636;2023-01-28T10:53:38;-0.70;99.90
37204;DHT22;23098;48.054;10.636;2023-01-28T10:56:07;-0.60;99.90
37204;DHT22;23098;48.054;10.636;2023-01-28T10:58:36;-0.30;99.90
37204;DHT22;23098;48.054;10.636;2023-01-28T11:01:10;-0.50;99.90
37204;DHT22;23098;48.054;10.636;2023-01-28T11:03:36;-0.40;99.90
37204;DHT22;23098;48.054;10.636;2023-01-28T11:06:02;-0.30;99.90
37204;DHT22;23098;48.054;10.636;2023-01-28T11:08:29;-0.40;99.90
37204;DHT22;23098;48.054;10.636;2023-01-28T11:10:55;-0.70;99.90
37204;DHT22;23098;48.054;10.636;2023-01-28T11:13:29;-0.60;99.90
37204;DHT22;23098;48.054;10.636;2023-01-28T11:16:01;-0.40;99.90
37204;DHT22;23098;48.054;10.636;2023-01-28T11:18:32;-0.60;99.90
37204;DHT22;23098;48.054;10.636;2023-01-28T11:21:00;-0.50;99.90
37204;DHT22;23098;48.054;10.636;2023-01-28T11:23:34;-0.50;99.90
37204;DHT22;23098;48.054;10.636;2023-01-28T11:26:07;-0.40;99.90
37204;DHT22;23098;48.054;10.636;2023-01-28T11:28:34;-0.50;99.90
37204;DHT22;23098;48.054;10.636;2023-01-28T11:31:04;-0.50;99.90
37204;DHT22;23098;48.054;10.636;2023-01-28T11:33:36;-0.50;99.90
37204;DHT22;23098;48.054;10.636;2023-01-28T11:36:30;-0.60;99.90
37204;DHT22;23098;48.054;10.636;2023-01-28T11:38:58;-0.40;99.90
37204;DHT22;23098;48.054;10.636;2023-01-28T11:41:36;-0.10;99.90
37204;DHT22;23098;48.054;10.636;2023-01-28T11:44:24;-0.20;99.90
37204;DHT22;23098;48.054;10.636;2023-01-28T11:49:27;0.30;99.90
37204;DHT22;23098;48.054;10.636;2023-01-28T11:57:34;0.40;99.90
37204;DHT22;23098;48.054;10.636;2023-01-28T12:00:16;0.50;99.90
37204;DHT22;23098;48.054;10.636;2023-01-28T12:02:52;0.60;99.90
37204;DHT22;23098;48.054;10.636;2023-01-28T12:05:45;0.40;99.90
37204;DHT22;23098;48.054;10.636;2023-01-28T12:09:06;0.40;99.90
37204;DHT22;23098;48.054;10.636;2023-01-28T12:14:04;0.70;99.90
37204;DHT22;23098;48.054;10.636;2023-01-28T12:16:49;0.70;99.90
37204;DHT22;23098;48.054;10.636;2023-01-28T12:27:49;0.10;99.90
37204;DHT22;23098;48.054;10.636;2023-01-28T12:36:17;0.20;99.90
37204;DHT22;23098;48.054;10.636;2023-01-28T12:41:26;0.10;99.90
37204;DHT22;23098;48.054;10.636;2023-01-28T12:46:51;0.30;99.90
37204;DHT22;23098;48.054;10.636;2023-01-28T12:49:29;0.30;99.90
37204;DHT22;23098;48.054;10.636;2023-01-28T12:57:20;0.10;99.90
37204;DHT22;23098;48.054;10.636;2023-01-28T12:59:52;0.10;99.90
37204;DHT22;23098;48.054;10.636;2023-01-28T13:02:39;-0.10;99.90
37204;DHT22;23098;48.054;10.636;2023-01-28T13:05:16;-0.20;99.90
37204;DHT22;23098;48.054;10.636;2023-01-28T13:10:37;-0.10;99.90
37204;DHT22;23098;48.054;10.636;2023-01-28T13:13:05;0.10;99.90
37204;DHT22;23098;48.054;10.636;2023-01-28T13:15:31;0.10;99.90
37204;DHT22;23098;48.054;10.636;2023-01-28T13:18:04;0.30;99.90
37204;DHT22;23098;48.054;10.636;2023-01-28T13:20:47;0.20;99.90
37204;DHT22;23098;48.054;10.636;2023-01-28T13:25:53;0.10;99.90
37204;DHT22;23098;48.054;10.636;2023-01-28T13:28:31;0.20;99.90
37204;DHT22;23098;48.054;10.636;2023-01-28T13:33:39;0.10;99.90
37204;DHT22;23098;48.054;10.636;2023-01-28T13:36:29;0.10;99.90
37204;DHT22;23098;48.054;10.636;2023-01-28T13:39:05;0.00;99.90
37204;DHT22;23098;48.054;10.636;2023-01-28T13:41:47;0.00;99.90
37204;DHT22;23098;48.054;10.636;2023-01-28T13:44:33;0.00;99.90
37204;DHT22;23098;48.054;10.636;2023-01-28T13:47:29;0.00;99.90
37204;DHT22;23098;48.054;10.636;2023-01-28T13:50:19;0.10;99.90
37204;DHT22;23098;48.054;10.636;2023-01-28T13:55:20;0.10;99.90
37204;DHT22;23098;48.054;10.636;2023-01-28T13:58:20;0.10;99.90
37204;DHT22;23098;48.054;10.636;2023-01-28T14:04:38;0.20;99.90
37204;DHT22;23098;48.054;10.636;2023-01-28T14:15:56;0.50;99.90
37204;DHT22;23098;48.054;10.636;2023-01-28T14:18:24;0.40;99.90
37204;DHT22;23098;48.054;10.636;2023-01-28T14:20:52;0.30;99.90
37204;DHT22;23098;48.054;10.636;2023-01-28T14:23:20;0.30;99.90
37204;DHT22;23098;48.054;10.636;2023-01-28T14:31:34;0.10;99.90
37204;DHT22;23098;48.054;10.636;2023-01-28T14:36:39;0.10;99.90
37204;DHT22;23098;48.054;10.636;2023-01-28T14:39:29;0.10;99.90
37204;DHT22;23098;48.054;10.636;2023-01-28T14:42:02;0.20;99.90
37204;DHT22;23098;48.054;10.636;2023-01-28T14:44:51;0.40;99.90
37204;DHT22;23098;48.054;10.636;2023-01-28T14:48:05;0.50;99.90
37204;DHT22;23098;48.054;10.636;2023-01-28T14:58:40;0.10;99.90
37204;DHT22;23098;48.054;10.636;2023-01-28T15:01:21;0.10;99.90
37204;DHT22;23098;48.054;10.636;2023-01-28T15:03:47;0.00;99.90
37204;DHT22;23098;48.054;10.636;2023-01-28T15:06:16;-0.10;99.90
37204;DHT22;23098;48.054;10.636;2023-01-28T15:08:42;-0.10;99.90
37204;DHT22;23098;48.054;10.636;2023-01-28T15:11:12;-0.10;99.90
37204;DHT22;23098;48.054;10.636;2023-01-28T15:13:44;-0.10;99.90
37204;DHT22;23098;48.054;10.636;2023-01-28T15:16:20;-0.20;99.90
37204;DHT22;23098;48.054;10.636;2023-01-28T15:18:50;-0.20;99.90
37204;DHT22;23098;48.054;10.636;2023-01-28T15:21:21;-0.10;99.90
37204;DHT22;23098;48.054;10.636;2023-01-28T15:23:52;-0.20;99.90
37204;DHT22;23098;48.054;10.636;2023-01-28T15:26:25;-0.20;99.90
37204;DHT22;23098;48.054;10.636;2023-01-28T15:28:52;-0.20;99.90
37204;DHT22;23098;48.054;10.636;2023-01-28T15:31:27;-0.30;99.90
37204;DHT22;23098;48.054;10.636;2023-01-28T15:34:01;-0.20;99.90
37204;DHT22;23098;48.054;10.636;2023-01-28T15:36:29;-0.30;99.90
37204;DHT22;23098;48.054;10.636;2023-01-28T15:38:56;-0.30;99.90
37204;DHT22;23098;48.054;10.636;2023-01-28T15:41:28;-0.30;99.90
37204;DHT22;23098;48.054;10.636;2023-01-28T15:43:55;-0.30;99.90
37204;DHT22;23098;48.054;10.636;2023-01-28T15:46:21;-0.30;99.90
37204;DHT22;23098;48.054;10.636;2023-01-28T15:49:00;-0.30;99.90
37204;DHT22;23098;48.054;10.636;2023-01-28T15:51:30;-0.40;99.90
37204;DHT22;23098;48.054;10.636;2023-01-28T15:54:08;-0.40;99.90
37204;DHT22;23098;48.054;10.636;2023-01-28T15:56:35;-0.30;99.90
37204;DHT22;23098;48.054;10.636;2023-01-28T16:01:41;-0.40;99.90
37204;DHT22;23098;48.054;10.636;2023-01-28T16:04:28;-0.40;99.90
37204;DHT22;23098;48.054;10.636;2023-01-28T16:06:55;-0.40;99.90
37204;DHT22;23098;48.054;10.636;2023-01-28T16:09:26;-0.40;99.90
37204;DHT22;23098;48.054;10.636;2023-01-28T16:11:53;-0.40;99.90
37204;DHT22;23098;48.054;10.636;2023-01-28T16:14:55;-0.40;99.90
37204;DHT22;23098;48.054;10.636;2023-01-28T16:17:24;-0.40;99.90
37204;DHT22;23098;48.054;10.636;2023-01-28T16:20:01;-0.40;99.90
37204;DHT22;23098;48.054;10.636;2023-01-28T16:22:38;-0.40;99.90
37204;DHT22;23098;48.054;10.636;2023-01-28T16:27:45;-0.40;99.90
37204;DHT22;23098;48.054;10.636;2023-01-28T16:30:11;-0.40;99.90
37204;DHT22;23098;48.054;10.636;2023-01-28T16:32:39;-0.40;99.90
37204;DHT22;23098;48.054;10.636;2023-01-28T16:35:33;-0.40;99.90
37204;DHT22;23098;48.054;10.636;2023-01-28T16:37:58;-0.40;99.90
37204;DHT22;23098;48.054;10.636;2023-01-28T16:40:25;-0.40;99.90
37204;DHT22;23098;48.054;10.636;2023-01-28T16:42:54;-0.40;99.90
37204;DHT22;23098;48.054;10.636;2023-01-28T16:45:22;-0.40;99.90
37204;DHT22;23098;48.054;10.636;2023-01-28T16:47:49;-0.50;99.90
37204;DHT22;23098;48.054;10.636;2023-01-28T16:50:16;-0.50;99.90
37204;DHT22;23098;48.054;10.636;2023-01-28T16:52:43;-0.50;99.90
37204;DHT22;23098;48.054;10.636;2023-01-28T16:55:12;-0.50;99.90
37204;DHT22;23098;48.054;10.636;2023-01-28T16:57:38;-0.40;99.90
37204;DHT22;23098;48.054;10.636;2023-01-28T17:00:05;-0.50;99.90
37204;DHT22;23098;48.054;10.636;2023-01-28T17:02:30;-0.50;99.90
37204;DHT22;23098;48.054;10.636;2023-01-28T17:04:56;-0.50;99.90
37204;DHT22;23098;48.054;10.636;2023-01-28T17:07:21;-0.50;99.90
37204;DHT22;23098;48.054;10.636;2023-01-28T17:09:47;-0.50;99.90
37204;DHT22;23098;48.054;10.636;2023-01-28T17:12:13;-0.40;99.90
37204;DHT22;23098;48.054;10.636;2023-01-28T17:14:38;-0.40;99.90
37204;DHT22;23098;48.054;10.636;2023-01-28T17:17:04;-0.40;99.90
37204;DHT22;23098;48.054;10.636;2023-01-28T17:19:29;-0.40;99.90
37204;DHT22;23098;48.054;10.636;2023-01-28T17:21:57;-0.50;99.90
37204;DHT22;23098;48.054;10.636;2023-01-28T17:24:22;-0.50;99.90
37204;DHT22;23098;48.054;10.636;2023-01-28T17:26:51;-0.50;99.90
37204;DHT22;23098;48.054;10.636;2023-01-28T17:29:17;-0.50;99.90